createdAt,value
2023-06-28T00:00:57.779Z,0.90
2023-06-28T00:03:24.306Z,1.00
2023-06-28T00:05:50.842Z,1.02
2023-06-28T00:08:17.352Z,0.90
2023-06-28T00:10:44.037Z,1.25
2023-06-28T00:13:10.683Z,1.20
2023-06-28T00:15:37.235Z,1.17
2023-06-28T00:18:03.923Z,1.13
2023-06-28T00:20:30.972Z,0.93
2023-06-28T00:22:57.512Z,1.10
2023-06-28T00:25:24.017Z,0.93
2023-06-28T00:27:50.543Z,0.90
2023-06-28T00:30:17.516Z,0.90
2023-06-28T00:32:44.143Z,0.95
2023-06-28T00:35:10.693Z,1.05
2023-06-28T00:37:37.231Z,1.00
2023-06-28T00:40:07.015Z,1.13
2023-06-28T00:42:33.647Z,1.00
2023-06-28T00:45:03.157Z,1.02
2023-06-28T00:47:29.824Z,1.10
2023-06-28T00:49:56.936Z,0.82
2023-06-28T00:52:23.464Z,1.17
2023-06-28T00:54:50.015Z,1.00
2023-06-28T00:57:16.607Z,0.70
2023-06-28T00:59:43.180Z,1.00
2023-06-28T01:02:11.384Z,0.85
2023-06-28T01:04:38.056Z,0.90
2023-06-28T01:07:04.689Z,1.02
2023-06-28T01:09:31.691Z,0.90
2023-06-28T01:11:58.405Z,1.10
2023-06-28T01:14:25.262Z,1.02
2023-06-28T01:16:55.511Z,0.90
2023-06-28T01:19:33.088Z,1.02
2023-06-28T01:22:00.494Z,0.98
2023-06-28T01:24:27.029Z,1.00
2023-06-28T01:26:54.064Z,0.80
2023-06-28T01:29:23.014Z,0.90
2023-06-28T01:31:50.400Z,1.05
2023-06-28T01:34:17.136Z,1.27
2023-06-28T01:36:43.661Z,0.95
2023-06-28T01:39:10.241Z,1.00
2023-06-28T01:41:36.755Z,2.05
2023-06-28T01:44:03.548Z,1.17
2023-06-28T01:46:32.061Z,1.70
2023-06-28T01:48:58.778Z,1.13
2023-06-28T01:51:25.304Z,1.00
2023-06-28T01:53:51.780Z,1.00
2023-06-28T01:56:18.335Z,1.00
2023-06-28T01:58:44.869Z,1.38
2023-06-28T02:01:11.482Z,1.30
2023-06-28T02:03:38.094Z,1.38
2023-06-28T02:06:04.756Z,1.15
2023-06-28T02:08:31.284Z,1.63
2023-06-28T02:10:57.830Z,1.30
2023-06-28T02:13:24.678Z,1.55
2023-06-28T02:15:51.241Z,1.30
2023-06-28T02:18:18.230Z,1.20
2023-06-28T02:20:45.054Z,1.25
2023-06-28T02:23:11.937Z,1.10
2023-06-28T02:25:38.526Z,1.58
2023-06-28T02:28:05.169Z,1.83
2023-06-28T02:30:31.656Z,1.00
2023-06-28T02:32:58.274Z,1.10
2023-06-28T02:35:24.861Z,1.00
2023-06-28T02:37:51.420Z,1.00
2023-06-28T02:40:17.981Z,1.02
2023-06-28T02:42:44.559Z,1.00
2023-06-28T02:45:11.397Z,0.90
2023-06-28T02:47:39.310Z,1.02
2023-06-28T02:50:07.484Z,1.10
2023-06-28T02:52:34.059Z,1.10
2023-06-28T02:55:00.688Z,0.82
2023-06-28T02:57:27.433Z,1.10
2023-06-28T02:59:54.051Z,1.25
2023-06-28T03:02:20.612Z,1.02
2023-06-28T03:04:47.154Z,1.30
2023-06-28T03:07:14.704Z,1.02
2023-06-28T03:09:41.433Z,1.08
2023-06-28T03:12:08.275Z,1.00
2023-06-28T03:14:35.031Z,0.80
2023-06-28T03:17:01.568Z,0.93
2023-06-28T03:19:28.210Z,1.00
2023-06-28T03:21:54.711Z,1.05
2023-06-28T03:24:21.266Z,0.90
2023-06-28T03:26:48.338Z,0.98
2023-06-28T03:29:14.857Z,0.90
2023-06-28T03:31:41.495Z,1.13
2023-06-28T03:34:08.024Z,0.82
2023-06-28T03:36:36.018Z,1.05
2023-06-28T03:39:02.580Z,1.00
2023-06-28T03:41:29.388Z,0.88
2023-06-28T03:43:56.170Z,0.80
2023-06-28T03:46:22.738Z,0.88
2023-06-28T03:48:49.286Z,1.20
2023-06-28T03:51:15.834Z,1.00
2023-06-28T03:53:42.361Z,0.90
2023-06-28T03:56:08.919Z,0.90
2023-06-28T03:58:35.537Z,0.80
2023-06-28T04:01:03.394Z,1.30
2023-06-28T04:03:30.204Z,0.90
2023-06-28T04:05:56.868Z,0.90
2023-06-28T04:08:28.068Z,0.90
2023-06-28T04:10:55.401Z,0.90
2023-06-28T04:13:22.097Z,0.80
2023-06-28T04:15:48.622Z,1.02
2023-06-28T04:18:15.162Z,1.27
2023-06-28T04:20:42.067Z,0.88
2023-06-28T04:23:08.918Z,0.80
2023-06-28T04:25:35.433Z,0.70
2023-06-28T04:28:02.018Z,0.75
2023-06-28T04:30:28.559Z,0.90
2023-06-28T04:32:55.164Z,0.80
2023-06-28T04:35:22.557Z,0.77
2023-06-28T04:37:49.303Z,0.77
2023-06-28T04:40:17.278Z,0.90
2023-06-28T04:42:43.895Z,0.93
2023-06-28T04:45:10.976Z,0.77
2023-06-28T04:47:37.576Z,0.70
2023-06-28T04:50:04.646Z,0.70
2023-06-28T04:52:31.296Z,0.77
2023-06-28T04:55:00.308Z,0.88
2023-06-28T04:57:27.250Z,0.80
2023-06-28T04:59:54.577Z,0.75
2023-06-28T05:02:26.341Z,0.60
2023-06-28T05:04:53.181Z,0.70
2023-06-28T05:07:19.818Z,0.90
2023-06-28T05:09:46.338Z,0.70
2023-06-28T05:12:12.879Z,0.70
2023-06-28T05:14:39.380Z,0.80
2023-06-28T05:17:05.973Z,0.70
2023-06-28T05:19:33.165Z,0.85
2023-06-28T05:21:59.726Z,0.80
2023-06-28T05:24:26.277Z,0.60
2023-06-28T05:26:52.860Z,0.70
2023-06-28T05:29:20.623Z,0.73
2023-06-28T05:31:47.220Z,1.00
2023-06-28T05:34:13.737Z,0.80
2023-06-28T05:36:40.668Z,0.70
2023-06-28T05:39:09.179Z,1.10
2023-06-28T05:41:37.190Z,1.00
2023-06-28T05:44:03.827Z,5.00
2023-06-28T05:46:30.370Z,1.52
2023-06-28T05:48:59.895Z,1.02
2023-06-28T05:51:26.680Z,1.15
2023-06-28T05:53:53.463Z,1.10
2023-06-28T05:56:21.428Z,0.88
2023-06-28T05:58:47.969Z,1.45
2023-06-28T06:01:14.490Z,1.40
2023-06-28T06:03:41.172Z,1.27
2023-06-28T06:06:07.732Z,0.80
2023-06-28T06:08:34.286Z,1.27
2023-06-28T06:11:00.906Z,1.00
2023-06-28T06:13:27.454Z,1.10
2023-06-28T06:15:54.150Z,1.05
2023-06-28T06:18:20.667Z,1.10
2023-06-28T06:20:47.712Z,0.90
2023-06-28T06:23:14.301Z,1.17
2023-06-28T06:25:40.906Z,0.93
2023-06-28T06:28:07.452Z,0.80
2023-06-28T06:30:34.036Z,0.90
2023-06-28T06:33:01.610Z,0.85
2023-06-28T06:35:28.814Z,0.90
2023-06-28T06:37:55.383Z,0.80
2023-06-28T06:40:21.919Z,0.70
2023-06-28T06:42:48.441Z,0.80
2023-06-28T06:45:18.453Z,0.90
2023-06-28T06:47:45.239Z,0.80
2023-06-28T06:50:12.667Z,0.70
2023-06-28T06:52:39.513Z,0.80
2023-06-28T06:55:06.177Z,0.70
2023-06-28T06:57:32.842Z,0.77
2023-06-28T06:59:59.353Z,0.77
2023-06-28T07:02:25.961Z,0.80
2023-06-28T07:04:52.761Z,0.70
2023-06-28T07:07:19.459Z,0.80
2023-06-28T07:09:46.101Z,0.90
2023-06-28T07:12:12.676Z,0.70
2023-06-28T07:14:39.282Z,1.00
2023-06-28T07:17:05.892Z,1.02
2023-06-28T07:19:32.445Z,1.00
2023-06-28T07:21:59.024Z,1.35
2023-06-28T07:24:25.703Z,0.90
2023-06-28T07:26:52.360Z,0.82
2023-06-28T07:29:18.974Z,0.90
2023-06-28T07:31:45.614Z,0.90
2023-06-28T07:34:12.281Z,0.90
2023-06-28T07:36:38.899Z,1.67
2023-06-28T07:39:05.568Z,1.00
2023-06-28T07:41:32.163Z,0.75
2023-06-28T07:43:58.700Z,0.70
2023-06-28T07:46:25.399Z,0.90
2023-06-28T07:48:52.760Z,0.80
2023-06-28T07:51:19.409Z,0.80
2023-06-28T07:53:47.418Z,1.05
2023-06-28T07:56:14.358Z,0.77
2023-06-28T07:58:41.180Z,1.00
2023-06-28T08:01:07.752Z,0.80
2023-06-28T08:03:34.414Z,0.60
2023-06-28T08:06:01.255Z,0.82
2023-06-28T08:08:27.818Z,0.88
2023-06-28T08:10:54.430Z,0.70
2023-06-28T08:13:21.045Z,0.65
2023-06-28T08:15:47.590Z,0.85
2023-06-28T08:18:17.442Z,0.50
2023-06-28T08:20:48.699Z,0.52
2023-06-28T08:23:15.830Z,0.60
2023-06-28T08:25:42.930Z,0.75
2023-06-28T08:28:10.227Z,0.90
2023-06-28T08:30:36.962Z,0.60
2023-06-28T08:33:04.075Z,0.63
2023-06-28T08:35:30.753Z,0.50
2023-06-28T08:37:57.906Z,0.80
2023-06-28T08:40:29.072Z,0.60
2023-06-28T08:42:55.893Z,0.50
2023-06-28T08:45:22.584Z,0.70
2023-06-28T08:47:49.293Z,0.60
2023-06-28T08:50:15.986Z,0.68
2023-06-28T08:52:42.770Z,0.50
2023-06-28T08:55:09.471Z,0.60
2023-06-28T08:57:36.174Z,0.60
2023-06-28T09:00:04.423Z,0.50
2023-06-28T09:02:31.743Z,0.68
2023-06-28T09:04:58.622Z,0.60
2023-06-28T09:07:25.235Z,0.70
2023-06-28T09:09:51.801Z,0.50
2023-06-28T09:12:18.464Z,0.82
2023-06-28T09:14:45.013Z,0.50
2023-06-28T09:17:11.714Z,0.57
2023-06-28T09:19:39.103Z,0.40
2023-06-28T09:22:05.724Z,0.57
2023-06-28T09:24:35.933Z,0.55
2023-06-28T09:27:03.295Z,0.60
2023-06-28T09:29:30.520Z,0.70
2023-06-28T09:31:57.242Z,0.68
2023-06-28T09:34:24.057Z,0.60
2023-06-28T09:36:54.117Z,0.50
2023-06-28T09:39:27.297Z,0.60
2023-06-28T09:41:54.472Z,0.50
2023-06-28T09:44:28.991Z,0.55
2023-06-28T09:47:00.055Z,0.60
2023-06-28T09:49:26.622Z,0.60
2023-06-28T09:51:59.374Z,0.60
2023-06-28T09:54:29.754Z,0.50
2023-06-28T09:56:56.325Z,0.55
2023-06-28T09:59:34.129Z,0.70
2023-06-28T10:02:04.975Z,0.70
2023-06-28T10:04:31.615Z,0.70
2023-06-28T10:07:02.190Z,0.68
2023-06-28T10:09:48.999Z,0.77
2023-06-28T10:12:16.014Z,0.70
2023-06-28T10:14:45.752Z,0.82
2023-06-28T10:17:12.582Z,0.70
2023-06-28T10:19:39.144Z,0.73
2023-06-28T10:22:05.902Z,0.85
2023-06-28T10:24:34.197Z,0.80
2023-06-28T10:27:01.584Z,0.93
2023-06-28T10:29:28.132Z,0.88
2023-06-28T10:31:54.713Z,0.77
2023-06-28T10:34:21.947Z,0.52
2023-06-28T10:36:48.538Z,1.00
2023-06-28T10:39:15.109Z,0.80
2023-06-28T10:41:41.696Z,0.90
2023-06-28T10:44:08.309Z,0.70
2023-06-28T10:46:35.034Z,0.93
2023-06-28T10:49:01.679Z,1.00
2023-06-28T10:51:28.747Z,0.75
2023-06-28T10:54:06.002Z,0.60
2023-06-28T10:56:36.343Z,0.80
2023-06-28T10:59:02.831Z,1.00
2023-06-28T11:01:39.804Z,0.82
2023-06-28T11:04:23.463Z,1.13
2023-06-28T11:07:09.014Z,0.90
2023-06-28T11:09:35.606Z,0.90
2023-06-28T11:12:02.370Z,1.17
2023-06-28T11:14:31.056Z,1.23
2023-06-28T11:17:07.100Z,1.15
2023-06-28T11:19:33.747Z,0.98
2023-06-28T11:22:00.760Z,1.27
2023-06-28T11:24:30.271Z,0.77
2023-06-28T11:26:56.824Z,1.00
2023-06-28T11:29:23.350Z,1.05
2023-06-28T11:31:50.477Z,0.90
2023-06-28T11:34:17.259Z,0.90
2023-06-28T11:36:44.580Z,0.80
2023-06-28T11:39:14.342Z,0.90
2023-06-28T11:41:40.881Z,0.70
2023-06-28T11:44:08.845Z,0.60
2023-06-28T11:46:35.381Z,0.90
2023-06-28T11:49:02.008Z,0.70
2023-06-28T11:51:28.621Z,0.85
2023-06-28T11:53:56.792Z,0.80
2023-06-28T11:56:35.631Z,0.70
2023-06-28T11:59:18.282Z,0.60
2023-06-28T12:01:48.080Z,0.70
2023-06-28T12:04:20.447Z,0.65
2023-06-28T12:06:49.405Z,0.70
2023-06-28T12:09:20.038Z,0.60
2023-06-28T12:11:50.590Z,0.60
2023-06-28T12:14:17.184Z,0.57
2023-06-28T12:16:44.778Z,0.70
2023-06-28T12:19:11.328Z,0.90
2023-06-28T12:21:38.837Z,0.55
2023-06-28T12:24:19.622Z,0.50
2023-06-28T12:26:46.791Z,0.40
2023-06-28T12:29:13.339Z,0.63
2023-06-28T12:31:44.652Z,0.77
2023-06-28T12:34:11.271Z,0.50
2023-06-28T12:36:39.038Z,0.45
2023-06-28T12:39:05.611Z,0.65
2023-06-28T12:41:32.191Z,0.60
2023-06-28T12:43:58.928Z,0.63
2023-06-28T12:46:26.782Z,0.50
2023-06-28T12:48:55.425Z,0.60
2023-06-28T12:51:22.088Z,0.80
2023-06-28T12:53:48.636Z,0.50
2023-06-28T12:56:15.378Z,0.60
2023-06-28T12:58:42.592Z,0.73
2023-06-28T13:01:09.178Z,0.70
2023-06-28T13:03:35.688Z,0.70
2023-06-28T13:06:03.610Z,0.75
2023-06-28T13:08:30.994Z,0.68
2023-06-28T13:10:57.836Z,0.70
2023-06-28T13:13:24.720Z,0.88
2023-06-28T13:15:52.705Z,0.95
2023-06-28T13:18:19.462Z,1.02
2023-06-28T13:20:46.096Z,0.80
2023-06-28T13:23:12.884Z,0.55
2023-06-28T13:25:39.463Z,0.60
2023-06-28T13:28:06.112Z,0.70
2023-06-28T13:30:32.651Z,0.50
2023-06-28T13:32:59.329Z,0.60
2023-06-28T13:35:26.082Z,0.70
2023-06-28T13:37:52.648Z,0.70
2023-06-28T13:40:19.513Z,0.60
2023-06-28T13:42:47.500Z,0.88
2023-06-28T13:45:14.169Z,0.60
2023-06-28T13:47:40.828Z,0.73
2023-06-28T13:50:07.891Z,0.73
2023-06-28T13:52:34.508Z,0.50
2023-06-28T13:55:01.142Z,0.50
2023-06-28T13:57:27.658Z,0.50
2023-06-28T13:59:54.802Z,0.80
2023-06-28T14:02:22.725Z,0.52
2023-06-28T14:04:50.482Z,0.60
2023-06-28T14:07:17.794Z,0.88
2023-06-28T14:09:44.388Z,0.60
2023-06-28T14:12:10.941Z,0.75
2023-06-28T14:14:37.510Z,0.50
2023-06-28T14:17:06.390Z,0.60
2023-06-28T14:19:32.927Z,0.80
2023-06-28T14:21:59.452Z,0.88
2023-06-28T14:24:26.061Z,0.68
2023-06-28T14:26:54.039Z,0.93
2023-06-28T14:29:20.556Z,0.80
2023-06-28T14:31:47.146Z,0.60
2023-06-28T14:34:13.706Z,0.75
2023-06-28T14:36:40.267Z,0.80
2023-06-28T14:39:10.991Z,0.80
2023-06-28T14:41:37.642Z,0.77
2023-06-28T14:44:04.675Z,0.70
2023-06-28T14:46:31.334Z,0.80
2023-06-28T14:48:59.512Z,0.98
2023-06-28T14:51:26.161Z,0.88
2023-06-28T14:53:52.764Z,0.90
2023-06-28T14:56:19.327Z,0.68
2023-06-28T14:58:45.912Z,0.80
2023-06-28T15:01:12.550Z,1.00
2023-06-28T15:03:39.210Z,0.90
2023-06-28T15:06:05.880Z,0.90
2023-06-28T15:08:33.391Z,0.73
2023-06-28T15:11:00.213Z,0.82
2023-06-28T15:13:27.123Z,0.90
2023-06-28T15:15:54.264Z,0.90
2023-06-28T15:18:20.939Z,0.90
2023-06-28T15:20:47.484Z,0.70
2023-06-28T15:23:14.335Z,0.63
2023-06-28T15:25:41.183Z,0.90
2023-06-28T15:28:08.229Z,0.85
2023-06-28T15:30:34.747Z,0.75
2023-06-28T15:33:01.445Z,0.80
2023-06-28T15:35:28.359Z,1.38
2023-06-28T15:37:54.889Z,0.80
2023-06-28T15:40:21.438Z,1.00
2023-06-28T15:42:48.058Z,0.70
2023-06-28T15:45:14.640Z,0.90
2023-06-28T15:47:41.303Z,0.80
2023-06-28T15:50:07.997Z,0.82
2023-06-28T15:52:34.549Z,1.20
2023-06-28T15:55:04.509Z,0.82
2023-06-28T15:57:31.082Z,0.95
2023-06-28T15:59:57.649Z,0.93
2023-06-28T16:02:24.456Z,0.90
2023-06-28T16:04:51.281Z,0.90
2023-06-28T16:07:17.926Z,0.88
2023-06-28T16:09:44.567Z,1.00
2023-06-28T16:12:11.131Z,1.45
2023-06-28T16:14:37.869Z,1.10
2023-06-28T16:17:04.784Z,1.15
2023-06-28T16:19:31.468Z,1.38
2023-06-28T16:21:58.079Z,1.40
2023-06-28T16:24:24.659Z,1.17
2023-06-28T16:26:51.242Z,1.10
2023-06-28T16:29:17.724Z,1.10
2023-06-28T16:31:44.539Z,1.52
2023-06-28T16:34:11.092Z,1.85
2023-06-28T16:36:42.555Z,1.45
2023-06-28T16:39:09.564Z,1.40
2023-06-28T16:41:36.450Z,1.00
2023-06-28T16:44:03.058Z,1.25
2023-06-28T16:46:29.584Z,1.55
2023-06-28T16:48:56.144Z,1.50
2023-06-28T16:51:22.769Z,1.25
2023-06-28T16:53:49.304Z,1.20
2023-06-28T16:56:16.056Z,1.23
2023-06-28T16:58:42.633Z,1.48
2023-06-28T17:01:09.174Z,1.77
2023-06-28T17:03:41.950Z,1.33
2023-06-28T17:06:08.832Z,1.67
2023-06-28T17:08:35.641Z,1.48
2023-06-28T17:11:02.379Z,1.50
2023-06-28T17:13:28.966Z,1.92
2023-06-28T17:15:55.612Z,1.73
2023-06-28T17:18:22.314Z,1.42
2023-06-28T17:20:48.873Z,1.60
2023-06-28T17:23:18.096Z,1.67
2023-06-28T17:25:45.404Z,1.65
2023-06-28T17:28:11.972Z,4.20
2023-06-28T17:30:39.760Z,3.58
2023-06-28T17:33:06.574Z,3.28
2023-06-28T17:35:33.109Z,2.40
2023-06-28T17:37:59.662Z,2.95
2023-06-28T17:40:26.208Z,2.65
2023-06-28T17:42:52.775Z,2.38
2023-06-28T17:45:19.309Z,1.88
2023-06-28T17:47:45.845Z,1.98
2023-06-28T17:50:12.499Z,1.73
2023-06-28T17:52:39.090Z,1.60
2023-06-28T17:55:05.918Z,2.22
2023-06-28T17:57:32.507Z,1.95
2023-06-28T17:59:59.054Z,3.35
2023-06-28T18:02:25.681Z,2.25
2023-06-28T18:04:52.277Z,1.83
2023-06-28T18:07:18.816Z,1.77
2023-06-28T18:09:45.370Z,1.60
2023-06-28T18:12:14.308Z,1.50
2023-06-28T18:14:44.197Z,1.98
2023-06-28T18:17:10.898Z,2.05
2023-06-28T18:19:38.203Z,2.28
2023-06-28T18:22:06.006Z,2.55
2023-06-28T18:24:32.596Z,2.60
2023-06-28T18:26:59.114Z,2.42
2023-06-28T18:29:25.716Z,2.47
2023-06-28T18:31:52.769Z,2.08
2023-06-28T18:34:19.311Z,2.58
2023-06-28T18:36:45.838Z,2.63
2023-06-28T18:39:12.514Z,3.22
2023-06-28T18:41:39.766Z,2.42
2023-06-28T18:44:09.135Z,2.55
2023-06-28T18:46:35.723Z,2.13
2023-06-28T18:49:02.242Z,2.40
2023-06-28T18:51:34.642Z,2.45
2023-06-28T18:54:01.371Z,2.10
2023-06-28T18:56:27.884Z,2.72
2023-06-28T18:58:54.449Z,2.58
2023-06-28T19:01:21.056Z,2.10
2023-06-28T19:03:47.623Z,2.40
2023-06-28T19:06:14.199Z,2.63
2023-06-28T19:08:41.061Z,2.55
2023-06-28T19:11:07.548Z,2.70
2023-06-28T19:13:34.114Z,3.00
2023-06-28T19:16:00.673Z,2.80
2023-06-28T19:41:50.007Z,3.38
2023-06-28T19:44:16.509Z,3.28
2023-06-28T19:46:43.048Z,3.92
2023-06-28T19:49:09.559Z,3.40
2023-06-28T19:51:36.066Z,3.40
2023-06-28T19:54:02.732Z,3.28
2023-06-28T19:56:29.286Z,3.78
2023-06-28T19:58:55.790Z,3.88
2023-06-28T20:01:22.405Z,4.65
2023-06-28T20:03:49.025Z,5.03
2023-06-28T20:06:15.594Z,4.95
2023-06-28T20:08:42.261Z,3.85
2023-06-28T20:11:08.805Z,3.92
2023-06-28T20:13:35.339Z,3.63
2023-06-28T20:16:01.891Z,2.95
2023-06-28T20:18:28.509Z,3.00
2023-06-28T20:20:55.026Z,2.65
2023-06-28T20:23:21.599Z,3.17
2023-06-28T20:25:51.132Z,2.95
2023-06-28T20:28:17.644Z,3.20
2023-06-28T20:30:44.192Z,3.85
2023-06-28T20:33:10.886Z,3.45
2023-06-28T20:35:37.630Z,3.03
2023-06-28T20:38:04.622Z,3.40
2023-06-28T20:40:31.305Z,3.33
2023-06-28T20:43:02.222Z,3.40
2023-06-28T20:45:29.004Z,2.92
2023-06-28T20:47:56.132Z,3.13
2023-06-28T20:50:22.738Z,2.85
2023-06-28T20:52:50.120Z,2.58
2023-06-28T20:55:16.675Z,2.60
2023-06-28T20:57:43.648Z,2.88
2023-06-28T21:00:15.436Z,3.70
2023-06-28T21:02:42.433Z,3.35
2023-06-28T21:11:04.054Z,4.38
2023-06-28T21:13:30.609Z,3.92
2023-06-28T21:15:57.215Z,3.97
2023-06-28T21:18:23.744Z,3.65
2023-06-28T21:20:50.319Z,3.70
2023-06-28T21:23:16.859Z,4.82
2023-06-28T21:25:43.699Z,4.45
2023-06-28T21:28:10.639Z,5.32
2023-06-28T21:30:38.236Z,5.07
2023-06-28T21:33:05.032Z,4.90
2023-06-28T21:35:31.682Z,4.72
2023-06-28T21:37:58.246Z,4.75
2023-06-28T21:40:24.757Z,4.47
2023-06-28T21:42:51.290Z,4.20
2023-06-28T21:45:17.795Z,4.63
2023-06-28T21:47:44.398Z,5.57
2023-06-28T21:50:11.233Z,4.93
2023-06-28T21:52:37.759Z,4.72
2023-06-28T21:55:05.422Z,5.20
2023-06-28T21:57:31.941Z,5.03
2023-06-28T21:59:58.700Z,4.78
2023-06-28T22:02:25.354Z,4.55
2023-06-28T22:04:52.248Z,4.82
2023-06-28T22:07:18.939Z,4.90
2023-06-28T22:09:46.624Z,4.70
2023-06-28T22:12:14.045Z,4.88
2023-06-28T22:14:43.327Z,5.35
2023-06-28T22:17:11.018Z,4.50
2023-06-28T22:19:38.176Z,4.03
2023-06-28T22:22:04.797Z,5.00
2023-06-28T22:24:31.389Z,4.10
2023-06-28T22:26:57.964Z,5.00
2023-06-28T22:29:24.558Z,4.80
2023-06-28T22:31:51.108Z,5.50
2023-06-28T22:34:20.018Z,4.57
2023-06-28T22:36:48.520Z,5.72
2023-06-28T22:39:15.055Z,5.47
2023-06-28T22:41:41.634Z,5.20
2023-06-28T22:44:08.184Z,7.53
2023-06-28T22:46:34.700Z,7.55
2023-06-28T22:49:01.245Z,7.70
2023-06-28T22:51:27.823Z,7.55
2023-06-28T22:53:54.527Z,7.60
2023-06-28T22:56:21.088Z,7.20
2023-06-28T22:58:47.818Z,5.90
2023-06-28T23:01:14.389Z,5.80
2023-06-28T23:03:41.004Z,6.70
2023-06-28T23:06:07.733Z,6.97
2023-06-28T23:08:35.602Z,8.68
2023-06-28T23:11:02.234Z,8.88
2023-06-28T23:13:28.832Z,9.02
2023-06-28T23:15:55.516Z,10.77
2023-06-28T23:18:22.130Z,10.32
2023-06-28T23:20:51.849Z,7.47
2023-06-28T23:23:19.036Z,7.47
2023-06-28T23:25:51.961Z,7.30
2023-06-28T23:28:19.147Z,7.00
2023-06-28T23:30:45.914Z,6.55
2023-06-28T23:33:15.756Z,6.45
2023-06-28T23:35:43.157Z,6.22
2023-06-28T23:38:10.084Z,7.13
2023-06-28T23:40:36.732Z,6.70
2023-06-28T23:43:04.374Z,6.90
2023-06-28T23:45:31.326Z,5.63
2023-06-28T23:47:59.247Z,6.85
2023-06-28T23:50:27.317Z,6.55
2023-06-28T23:52:56.915Z,5.70
2023-06-28T23:55:24.404Z,6.40
2023-06-28T23:57:52.876Z,6.63
